If you wish to contribute or participate in the discussions about articles you are invited to join SKYbrary as a registered user

 Actions

Cheongju International Airport

From SKYbrary Wiki

RKTU
Airport
ICAO: RKTU – IATA: CJJ
Summary
Name Cheongju International Airport
Region
Territory South Korea KR.gif
Location , Ch'ungch'ong-bukto
Serving Chongju
Elevation 58.217 m
191 ft
191 ft58.217 m
Type large airport
Coordinates 36° 42' 59.76" N, 127° 29' 56.83" E
Runways
Designator Length Width Surface ROPS
06L/24R 2743 m8,999.344 ft
61 m200.131 ft
CON yes/yes
06R/24L 2743 m8,999.344 ft
46 m150.919 ft
CON yes/yes


METAR
Observation RKTU 281300Z 15001KT CAVOK 15/13 Q1015
Station Chongju Ab
Date/Time 28 September 2020 13:00:00
Wind direction 150°
Wind speed 01 kts
Lowest cloud amount clouds and visibility OK
Temperature 15°C
Dew point 13°C
Humidity 87%
QNH 1015 hPa
Weather condition n/a